Time;durP1;ratioP1;P1;durP2;ratioP2;P2;SDS_P1;SDS_P2;PMS_P1;PMS_P2;Temp;Humidity;BMP_temperature;BMP_pressure;BME280_temperature;BME280_humidity;BME280_pressure;Samples;Min_cycle;Max_cycle;Signal;HPM_P1;HPM_P2
2022/01/09 00:00:20;;;;;;;;;;;;;;;7.04;99.21;99115.34;4995311;28;1240;-57
2022/01/09 00:02:48;;;;;;;;;;;;;;;7.09;99.55;99111.41;4995202;28;1205;-57
2022/01/09 00:05:15;;;;;;;;;;;;;;;7.11;99.38;99114.53;5012753;28;936;-57
2022/01/09 00:07:42;;;;;;;;;;;;;;;7.12;99.34;99119.63;5012730;28;837;-58
2022/01/09 00:10:10;;;;;;;;;;;;;;;7.12;99.44;99116.09;5012610;28;965;-58
2022/01/09 00:12:37;;;;;;;;;;;;;;;7.10;99.55;99110.22;5012807;28;994;-58
2022/01/09 00:15:05;;;;;;;;;;;;;;;7.09;99.53;99114.16;4994960;28;1237;-58
2022/01/09 00:17:31;;;;;;;;;;;;;;;7.06;99.20;99096.50;5012479;28;1878;-58
2022/01/09 00:19:59;;;;;;;;;;;;;;;7.06;99.27;99102.00;4994955;28;1240;-57
2022/01/09 00:22:36;;;;;;;;;;;;;;;7.07;99.77;99092.56;5012371;28;888;-58
2022/01/09 00:25:04;;;;;;;;;;;;;;;7.11;99.68;99096.09;4994704;28;1393;-58
2022/01/09 00:27:30;;;;;;;;;;;;;;;7.18;98.90;99087.03;5012535;28;836;-58
2022/01/09 00:29:57;;;;;;;;;;;;;;;7.23;99.61;99083.09;5011509;28;859;-58
2022/01/09 00:32:24;;;;;;;;;;;;;;;7.22;98.95;99078.78;5012164;28;947;-58
2022/01/09 00:34:50;;;;;;;;;;;;;;;7.19;98.71;99082.31;4994680;28;1193;-58
2022/01/09 00:37:17;;;;;;;;;;;;;;;7.19;99.37;99076.81;5012264;28;1964;-58
2022/01/09 00:39:44;;;;;;;;;;;;;;;7.20;99.31;99073.69;4994735;28;863;-58
2022/01/09 00:42:11;;;;;;;;;;;;;;;7.23;99.20;99074.84;5012479;28;840;-58
2022/01/09 00:44:38;;;;;;;;;;;;;;;7.25;99.17;99058.75;5012257;28;1020;-57
2022/01/09 00:47:05;;;;;;;;;;;;;;;7.27;98.87;99064.63;5012203;28;861;-58
2022/01/09 00:49:31;;;;;;;;;;;;;;;7.23;98.94;99061.88;5012185;28;935;-58
2022/01/09 00:51:58;;;;;;;;;;;;;;;7.15;98.57;99049.38;5012307;28;828;-58
2022/01/09 00:54:25;;;;;;;;;;;;;;;7.06;98.89;99046.22;5012269;28;899;-58
2022/01/09 00:56:52;;;;;;;;;;;;;;;7.01;98.80;99047.44;5012155;28;1890;-58
2022/01/09 00:59:19;;;;;;;;;;;;;;;7.06;100.00;99040.72;5012229;28;895;-58
2022/01/09 01:01:46;;;;;;;;;;;;;;;7.08;99.57;99038.38;5012079;28;771;-58
2022/01/09 01:04:13;;;;;;;;;;;;;;;7.08;99.93;99041.94;4994650;28;880;-58
2022/01/09 01:06:40;;;;;;;;;;;;;;;7.07;99.70;99037.59;5011923;28;924;-58
2022/01/09 01:09:07;;;;;;;;;;;;;;;7.08;99.60;99033.69;5012051;28;894;-58
2022/01/09 01:11:34;;;;;;;;;;;;;;;7.05;99.48;99023.47;5011877;28;849;-58
2022/01/09 01:14:00;;;;;;;;;;;;;;;7.00;99.38;99021.16;5012354;28;1233;-58
2022/01/09 01:16:26;;;;;;;;;;;;;;;6.92;100.00;99014.09;4994271;28;1953;-58
2022/01/09 01:18:55;;;;;;;;;;;;;;;6.83;99.72;99021.94;4994163;28;1178;-58
2022/01/09 01:21:25;;;;;;;;;;;;;;;6.75;99.21;99016.47;5011993;28;868;-58
2022/01/09 01:23:52;;;;;;;;;;;;;;;6.68;100.00;99010.25;5011352;28;1776;-58
2022/01/09 01:26:19;;;;;;;;;;;;;;;6.65;100.00;99005.53;4994015;28;1303;-58
2022/01/09 01:28:47;;;;;;;;;;;;;;;6.62;100.00;99001.59;5011573;28;833;-58
2022/01/09 01:31:14;;;;;;;;;;;;;;;6.66;100.00;99007.88;4977818;28;1299;-58
2022/01/09 01:33:41;;;;;;;;;;;;;;;6.72;100.00;99011.78;5011606;28;816;-58
2022/01/09 01:36:08;;;;;;;;;;;;;;;6.84;100.00;99012.53;5011405;28;1968;-58
2022/01/09 01:38:35;;;;;;;;;;;;;;;6.89;100.00;99009.38;5011620;28;865;-57
2022/01/09 01:41:01;;;;;;;;;;;;;;;6.95;100.00;99016.03;5013392;28;956;-58
2022/01/09 01:43:28;;;;;;;;;;;;;;;6.97;100.00;99010.94;5015480;28;838;-58
2022/01/09 01:45:55;;;;;;;;;;;;;;;7.02;100.00;98998.75;5015805;28;809;-58
2022/01/09 01:48:22;;;;;;;;;;;;;;;7.03;100.00;99008.56;5015337;28;865;-58
2022/01/09 01:50:49;;;;;;;;;;;;;;;7.04;99.76;99007.38;4997639;28;1454;-58
2022/01/09 01:53:20;;;;;;;;;;;;;;;7.05;100.00;99001.50;5015174;28;868;-58
2022/01/09 01:55:52;;;;;;;;;;;;;;;7.10;100.00;99009.31;5015048;28;1943;-57
2022/01/09 01:58:20;;;;;;;;;;;;;;;7.17;100.00;98989.28;4997616;28;1226;-56
2022/01/09 02:00:46;;;;;;;;;;;;;;;7.21;100.00;98992.81;5015170;28;840;-57
2022/01/09 02:03:14;;;;;;;;;;;;;;;7.19;99.60;98986.94;4997763;28;892;-57
2022/01/09 02:05:45;;;;;;;;;;;;;;;7.14;99.77;98976.31;5014945;28;931;-57
2022/01/09 02:08:12;;;;;;;;;;;;;;;7.13;99.68;98983.78;5015006;28;1152;-58
2022/01/09 02:10:40;;;;;;;;;;;;;;;7.12;100.00;98971.22;5014979;28;927;-57
2022/01/09 02:13:07;;;;;;;;;;;;;;;7.14;99.77;98971.59;4997407;28;1263;-57
2022/01/09 02:15:38;;;;;;;;;;;;;;;7.19;100.00;98973.19;4997144;28;1992;-57
2022/01/09 02:18:07;;;;;;;;;;;;;;;7.24;100.00;98966.47;4997281;28;1203;-57
2022/01/09 02:20:34;;;;;;;;;;;;;;;7.27;100.00;98963.69;5014783;28;848;-57
2022/01/09 02:23:01;;;;;;;;;;;;;;;7.30;99.79;98967.63;5014595;28;1284;-57
2022/01/09 02:25:29;;;;;;;;;;;;;;;7.30;100.00;98953.88;5014946;28;852;-57
2022/01/09 02:27:56;;;;;;;;;;;;;;;7.26;99.74;98958.63;5014495;28;975;-58
2022/01/09 02:30:23;;;;;;;;;;;;;;;7.21;99.85;98951.59;5014635;28;908;-58
2022/01/09 02:32:51;;;;;;;;;;;;;;;7.16;99.57;98941.75;5014605;28;844;-57
2022/01/09 02:35:18;;;;;;;;;;;;;;;7.13;99.87;98945.31;5014351;28;967;-57
2022/01/09 02:37:44;;;;;;;;;;;;;;;7.11;99.55;98933.94;5014388;28;1914;-57
2022/01/09 02:40:11;;;;;;;;;;;;;;;7.10;100.00;98926.88;5014377;28;880;-57
2022/01/09 02:42:38;;;;;;;;;;;;;;;7.10;100.00;98924.13;4996841;28;1336;-58
2022/01/09 02:45:05;;;;;;;;;;;;;;;7.11;100.00;98913.94;5014244;28;1044;-58
2022/01/09 02:47:33;;;;;;;;;;;;;;;7.11;100.00;98909.22;5014229;28;864;-58
2022/01/09 02:50:12;;;;;;;;;;;;;;;7.13;100.00;98909.59;5014190;28;880;-57
2022/01/09 02:52:51;;;;;;;;;;;;;;;7.19;100.00;98911.91;5013351;28;962;-58
2022/01/09 02:55:18;;;;;;;;;;;;;;;7.22;100.00;98916.63;5013992;28;928;-58
2022/01/09 02:57:48;;;;;;;;;;;;;;;7.24;100.00;98906.78;5014023;28;1942;-58
2022/01/09 03:00:17;;;;;;;;;;;;;;;7.26;100.00;98907.16;5014118;28;924;-58
2022/01/09 03:02:44;;;;;;;;;;;;;;;7.27;100.00;98905.97;5014064;28;911;-58
2022/01/09 03:05:12;;;;;;;;;;;;;;;7.26;100.00;98904.44;5013797;28;865;-58
2022/01/09 03:07:40;;;;;;;;;;;;;;;7.25;100.00;98905.59;5013933;28;984;-58
2022/01/09 03:10:07;;;;;;;;;;;;;;;7.23;100.00;98912.69;5013901;28;821;-58
2022/01/09 03:12:34;;;;;;;;;;;;;;;7.21;100.00;98917.78;5013753;28;980;-58
2022/01/09 03:15:01;;;;;;;;;;;;;;;7.19;100.00;98917.41;4996178;28;1189;-58
2022/01/09 03:17:27;;;;;;;;;;;;;;;7.15;100.00;98926.47;4996288;28;1970;-58
2022/01/09 03:19:54;;;;;;;;;;;;;;;7.11;100.00;98916.69;5013722;28;879;-58
2022/01/09 03:22:21;;;;;;;;;;;;;;;7.10;100.00;98923.34;5013586;28;986;-58
2022/01/09 03:24:49;;;;;;;;;;;;;;;7.05;100.00;98921.81;5013407;28;1231;-57
2022/01/09 03:27:16;;;;;;;;;;;;;;;7.00;100.00;98919.47;4995880;28;1272;-58
2022/01/09 03:29:43;;;;;;;;;;;;;;;7.00;100.00;98916.75;4979808;28;1241;-58
2022/01/09 03:32:10;;;;;;;;;;;;;;;6.97;99.71;98916.75;5013443;28;824;-58
2022/01/09 03:34:37;;;;;;;;;;;;;;;6.94;100.00;98923.81;5013309;28;816;-58
2022/01/09 03:37:04;;;;;;;;;;;;;;;6.91;100.00;98916.38;5013303;28;1914;-58
2022/01/09 03:39:31;;;;;;;;;;;;;;;6.89;100.00;98919.53;5013330;28;836;-58
2022/01/09 03:41:58;;;;;;;;;;;;;;;6.87;100.00;98912.84;5013160;28;1042;-58
2022/01/09 03:44:28;;;;;;;;;;;;;;;6.85;100.00;98906.97;5013233;28;879;-58
2022/01/09 03:46:55;;;;;;;;;;;;;;;6.85;100.00;98913.28;5013238;28;844;-58
2022/01/09 03:49:22;;;;;;;;;;;;;;;6.86;100.00;98916.78;5013105;28;867;-59
2022/01/09 03:51:53;;;;;;;;;;;;;;;6.86;100.00;98922.28;5013147;28;835;-59
2022/01/09 03:54:22;;;;;;;;;;;;;;;6.84;100.00;98921.91;4995570;28;1368;-59
2022/01/09 03:56:49;;;;;;;;;;;;;;;6.80;100.00;98923.88;4995285;28;1950;-60
2022/01/09 03:59:15;;;;;;;;;;;;;;;6.77;100.00;98924.69;5013035;28;911;-61
2022/01/09 04:01:42;;;;;;;;;;;;;;;6.74;100.00;98929.00;5012912;28;900;-61
2022/01/09 04:04:09;;;;;;;;;;;;;;;6.72;100.00;98932.16;5012802;28;837;-61
2022/01/09 04:06:39;;;;;;;;;;;;;;;6.71;100.00;98932.53;5012892;28;828;-61
2022/01/09 04:09:17;;;;;;;;;;;;;;;6.70;100.00;98940.00;5013115;28;872;-61
2022/01/09 04:11:44;;;;;;;;;;;;;;;6.70;100.00;98940.00;4995006;28;1345;-61
2022/01/09 04:14:11;;;;;;;;;;;;;;;6.71;100.00;98943.53;4995057;28;1414;-61
2022/01/09 04:16:38;;;;;;;;;;;;;;;6.72;100.00;98951.38;5012577;28;1890;-61
2022/01/09 04:19:05;;;;;;;;;;;;;;;6.75;100.00;98949.78;5012673;28;887;-61
2022/01/09 04:21:31;;;;;;;;;;;;;;;6.77;100.00;98950.19;5012534;28;824;-61
2022/01/09 04:23:58;;;;;;;;;;;;;;;6.78;100.00;98959.97;5012411;28;1221;-61
2022/01/09 04:26:24;;;;;;;;;;;;;;;6.79;100.00;98958.81;5012497;28;845;-61
2022/01/09 04:28:51;;;;;;;;;;;;;;;6.80;100.00;98954.09;5012397;28;845;-61
2022/01/09 04:31:18;;;;;;;;;;;;;;;6.81;100.00;98950.94;4994809;28;1224;-61
2022/01/09 04:33:45;;;;;;;;;;;;;;;6.85;100.00;98937.19;4994537;28;1437;-60
2022/01/09 04:36:12;;;;;;;;;;;;;;;6.86;100.00;98947.00;5012278;28;1979;-61
2022/01/09 04:38:39;;;;;;;;;;;;;;;6.88;100.00;98952.88;5012269;28;933;-61
2022/01/09 04:41:06;;;;;;;;;;;;;;;6.89;100.00;98949.75;5012244;28;873;-61
2022/01/09 04:43:33;;;;;;;;;;;;;;;6.90;100.00;98940.31;4994510;28;1237;-60
2022/01/09 04:46:00;;;;;;;;;;;;;;;6.93;100.00;98939.53;4994525;28;1484;-61
2022/01/09 04:48:27;;;;;;;;;;;;;;;6.97;100.00;98933.22;5012086;28;809;-61
2022/01/09 04:50:54;;;;;;;;;;;;;;;6.98;100.00;98926.53;5012070;28;924;-61
2022/01/09 04:53:21;;;;;;;;;;;;;;;6.99;100.00;98922.63;4994168;28;1324;-61
2022/01/09 04:55:49;;;;;;;;;;;;;;;6.96;100.00;98921.47;5012254;28;1890;-61
2022/01/09 04:58:17;;;;;;;;;;;;;;;6.93;100.00;98930.50;5011947;28;1158;-61
2022/01/09 05:00:44;;;;;;;;;;;;;;;6.89;100.00;98919.53;5011865;28;876;-60
2022/01/09 05:03:13;;;;;;;;;;;;;;;6.90;100.00;98926.59;4994167;28;1229;-61
2022/01/09 05:05:40;;;;;;;;;;;;;;;6.91;100.00;98922.66;4994142;28;1221;-61
2022/01/09 05:08:06;;;;;;;;;;;;;;;6.92;99.86;98915.19;5011894;28;908;-61
2022/01/09 05:10:33;;;;;;;;;;;;;;;6.93;100.00;98914.00;5011726;28;833;-61
2022/01/09 05:13:00;;;;;;;;;;;;;;;6.94;100.00;98901.84;4994224;28;1188;-61
2022/01/09 05:15:26;;;;;;;;;;;;;;;6.92;100.00;98898.72;4993721;28;1231;-61
2022/01/09 05:17:58;;;;;;;;;;;;;;;6.93;100.00;98897.53;5011681;28;1925;-61
2022/01/09 05:20:25;;;;;;;;;;;;;;;6.93;100.00;98889.28;4994273;28;1323;-61
2022/01/09 05:22:55;;;;;;;;;;;;;;;6.93;100.00;98889.28;4993940;28;1332;-61
2022/01/09 05:25:22;;;;;;;;;;;;;;;6.92;100.00;98887.72;5011757;28;963;-60
2022/01/09 05:27:49;;;;;;;;;;;;;;;6.92;100.00;98890.47;5011716;28;923;-61
2022/01/09 05:30:16;;;;;;;;;;;;;;;6.92;100.00;98890.47;4994097;28;1263;-61
2022/01/09 05:32:43;;;;;;;;;;;;;;;6.89;99.88;98896.75;4993841;28;1237;-61
2022/01/09 05:35:10;;;;;;;;;;;;;;;6.86;100.00;98897.56;5011898;28;910;-61
2022/01/09 05:37:37;;;;;;;;;;;;;;;6.84;100.00;98897.19;4993866;28;1972;-61
2022/01/09 05:40:03;;;;;;;;;;;;;;;6.84;100.00;98894.44;5011681;28;836;-61
2022/01/09 05:42:30;;;;;;;;;;;;;;;6.82;100.00;98905.03;4993823;28;1550;-61
2022/01/09 05:44:57;;;;;;;;;;;;;;;6.78;100.00;98896.81;5011557;28;825;-61
2022/01/09 05:47:23;;;;;;;;;;;;;;;6.78;100.00;98896.81;5011517;28;966;-61
2022/01/09 05:49:51;;;;;;;;;;;;;;;6.80;100.00;98899.94;5011609;28;895;-61
2022/01/09 05:52:17;;;;;;;;;;;;;;;6.81;100.00;98909.75;4993897;28;1268;-61
2022/01/09 05:54:44;;;;;;;;;;;;;;;6.83;100.00;98904.66;5011466;28;860;-61
2022/01/09 05:57:11;;;;;;;;;;;;;;;6.84;100.00;98900.69;5011480;28;1894;-61
2022/01/09 05:59:38;;;;;;;;;;;;;;;6.83;100.00;98892.84;5011550;28;824;-61
2022/01/09 06:02:04;;;;;;;;;;;;;;;6.82;100.00;98897.56;5011482;28;884;-61
2022/01/09 06:04:31;;;;;;;;;;;;;;;6.81;100.00;98896.03;5011654;28;879;-61
2022/01/09 06:06:58;;;;;;;;;;;;;;;6.82;100.00;98894.81;5011640;28;833;-61
2022/01/09 06:09:24;;;;;;;;;;;;;;;6.83;100.00;98898.34;5011457;28;907;-60
2022/01/09 06:11:51;;;;;;;;;;;;;;;6.85;100.00;98899.53;5011623;28;1101;-62
2022/01/09 06:14:18;;;;;;;;;;;;;;;6.88;100.00;98901.47;5011562;28;816;-61
2022/01/09 06:16:45;;;;;;;;;;;;;;;6.93;100.00;98890.09;5011467;28;1886;-61
2022/01/09 06:19:11;;;;;;;;;;;;;;;6.96;100.00;98899.47;5011194;28;879;-61
2022/01/09 06:21:39;;;;;;;;;;;;;;;6.97;100.00;98898.28;5011210;28;903;-61
2022/01/09 06:24:05;;;;;;;;;;;;;;;6.97;100.00;98895.53;5010909;28;1274;-61
2022/01/09 06:26:32;;;;;;;;;;;;;;;7.00;100.00;98893.94;5011345;28;833;-61
2022/01/09 06:28:59;;;;;;;;;;;;;;;7.07;100.00;98888.44;5014418;28;833;-61
2022/01/09 06:31:26;;;;;;;;;;;;;;;7.16;100.00;98892.28;4996905;28;1193;-61
2022/01/09 06:33:53;;;;;;;;;;;;;;;7.24;100.00;98890.28;5014576;28;915;-61
2022/01/09 06:36:20;;;;;;;;;;;;;;;7.26;100.00;98889.91;5014359;28;1969;-61
2022/01/09 06:38:46;;;;;;;;;;;;;;;7.28;100.00;98887.53;5014548;28;1059;-61
2022/01/09 06:41:12;;;;;;;;;;;;;;;7.41;100.00;98885.09;5014448;28;844;-61
2022/01/09 06:43:40;;;;;;;;;;;;;;;7.62;100.00;98884.94;5014291;28;829;-61
2022/01/09 06:46:07;;;;;;;;;;;;;;;7.85;100.00;98894.56;4996702;28;1268;-61
2022/01/09 06:48:33;;;;;;;;;;;;;;;7.94;99.86;98881.91;4996651;28;1437;-61
2022/01/09 06:51:00;;;;;;;;;;;;;;;7.98;99.45;98895.66;5014432;28;840;-63
2022/01/09 06:53:27;;;;;;;;;;;;;;;7.93;99.23;98890.56;5014201;28;841;-63
2022/01/09 06:55:54;;;;;;;;;;;;;;;7.93;99.28;98888.59;5014133;28;1891;-63
2022/01/09 06:58:21;;;;;;;;;;;;;;;7.96;99.40;98889.78;5014087;28;840;-63
2022/01/09 07:00:48;;;;;;;;;;;;;;;7.96;99.48;98890.53;5014030;28;864;-63
2022/01/09 07:03:15;;;;;;;;;;;;;;;7.89;99.78;98896.09;4996471;28;1516;-62
2022/01/09 07:05:42;;;;;;;;;;;;;;;7.78;99.83;98895.41;4996389;28;1363;-62
2022/01/09 07:08:09;;;;;;;;;;;;;;;7.69;100.00;98898.63;5013919;28;843;-62
2022/01/09 07:10:36;;;;;;;;;;;;;;;7.65;99.93;98902.59;5013826;28;832;-62
2022/01/09 07:13:03;;;;;;;;;;;;;;;7.63;100.00;98896.72;4996273;28;1161;-62
2022/01/09 07:15:30;;;;;;;;;;;;;;;7.56;100.00;98898.31;5013713;28;954;-62
2022/01/09 07:17:57;;;;;;;;;;;;;;;7.50;100.00;98908.19;4996007;28;1910;-62
2022/01/09 07:20:24;;;;;;;;;;;;;;;7.47;100.00;98899.97;5013937;28;879;-62
2022/01/09 07:22:51;;;;;;;;;;;;;;;7.45;100.00;98905.88;5013494;28;1426;-62
2022/01/09 07:25:17;;;;;;;;;;;;;;;7.46;100.00;98904.69;5013611;28;903;-62
2022/01/09 07:27:44;;;;;;;;;;;;;;;7.49;100.00;98900.34;4995821;28;1324;-62
2022/01/09 07:30:11;;;;;;;;;;;;;;;7.52;100.00;98896.78;5013414;28;872;-62
2022/01/09 07:32:43;;;;;;;;;;;;;;;7.57;99.98;98899.91;5013540;28;832;-62
2022/01/09 07:35:13;;;;;;;;;;;;;;;7.57;99.82;98899.09;5013293;28;1154;-62
2022/01/09 07:37:39;;;;;;;;;;;;;;;7.51;100.00;98901.53;5013127;28;1982;-62
2022/01/09 07:40:06;;;;;;;;;;;;;;;7.52;99.89;98896.78;5013199;28;920;-62
2022/01/09 07:42:33;;;;;;;;;;;;;;;7.51;100.00;98898.78;4995698;28;1376;-62
2022/01/09 07:45:00;;;;;;;;;;;;;;;7.56;100.00;98892.81;5013534;28;848;-62
2022/01/09 07:47:27;;;;;;;;;;;;;;;7.62;100.00;98892.38;4995566;28;1370;-61
2022/01/09 07:49:54;;;;;;;;;;;;;;;7.58;100.00;98884.19;5013263;28;832;-62
2022/01/09 07:52:21;;;;;;;;;;;;;;;7.59;99.71;98888.47;5013193;28;844;-62
2022/01/09 07:54:48;;;;;;;;;;;;;;;7.59;99.87;98890.47;5013141;28;876;-62
2022/01/09 07:57:14;;;;;;;;;;;;;;;7.66;99.72;98882.94;5013118;28;1890;-62
2022/01/09 07:59:41;;;;;;;;;;;;;;;7.72;99.82;98883.28;5013026;28;840;-61
2022/01/09 08:02:09;;;;;;;;;;;;;;;7.69;99.64;98878.59;4995299;28;1331;-61
2022/01/09 08:04:35;;;;;;;;;;;;;;;7.74;99.39;98884.44;4995294;28;1303;-61
2022/01/09 08:07:03;;;;;;;;;;;;;;;7.80;99.57;98884.78;5012916;28;996;-61
2022/01/09 08:09:30;;;;;;;;;;;;;;;7.76;98.88;98878.53;5012917;28;872;-61
2022/01/09 08:11:56;;;;;;;;;;;;;;;7.70;99.06;98871.91;5012785;28;970;-61
2022/01/09 08:14:23;;;;;;;;;;;;;;;7.71;99.27;98867.97;5012729;28;844;-61
2022/01/09 08:16:50;;;;;;;;;;;;;;;7.76;99.32;98862.78;5012848;28;1890;-61
2022/01/09 08:19:17;;;;;;;;;;;;;;;7.82;99.14;98854.91;5012883;28;874;-61
2022/01/09 08:21:43;;;;;;;;;;;;;;;7.96;98.87;98854.00;5012888;28;912;-61
2022/01/09 08:24:10;;;;;;;;;;;;;;;8.00;98.70;98848.44;5012606;28;1283;-61
2022/01/09 08:26:37;;;;;;;;;;;;;;;7.94;98.34;98851.66;4995122;28;1291;-61
2022/01/09 08:29:04;;;;;;;;;;;;;;;7.85;98.44;98851.34;4995011;28;1539;-61
2022/01/09 08:31:30;;;;;;;;;;;;;;;7.87;98.58;98851.72;4994982;28;1240;-61
2022/01/09 08:33:57;;;;;;;;;;;;;;;7.84;98.57;98849.00;4995046;28;1291;-61
2022/01/09 08:36:24;;;;;;;;;;;;;;;7.83;98.64;98847.41;5012510;28;1906;-61
2022/01/09 08:38:56;;;;;;;;;;;;;;;7.85;98.56;98848.59;5012392;28;891;-61
2022/01/09 08:41:23;;;;;;;;;;;;;;;7.81;98.54;98836.03;4994064;28;1337;-61
2022/01/09 08:43:49;;;;;;;;;;;;;;;7.86;98.74;98830.13;5012217;28;821;-61
2022/01/09 08:46:16;;;;;;;;;;;;;;;7.92;98.92;98831.25;5012147;28;966;-61
2022/01/09 08:48:43;;;;;;;;;;;;;;;8.03;98.81;98826.41;5012259;28;864;-61
2022/01/09 08:51:10;;;;;;;;;;;;;;;8.11;98.21;98827.91;4993683;28;1328;-61
2022/01/09 08:53:37;;;;;;;;;;;;;;;8.32;98.83;98820.56;4994426;28;1307;-61
2022/01/09 08:56:04;;;;;;;;;;;;;;;8.30;97.92;98821.00;5011976;28;1930;-61
2022/01/09 08:58:32;;;;;;;;;;;;;;;8.24;97.39;98821.88;5012006;28;847;-61
2022/01/09 09:00:59;;;;;;;;;;;;;;;8.25;98.10;98829.69;5012042;28;899;-61
2022/01/09 09:03:25;;;;;;;;;;;;;;;8.29;98.29;98813.91;5011956;28;970;-61
2022/01/09 09:05:52;;;;;;;;;;;;;;;8.39;98.31;98813.03;5011995;28;844;-61
2022/01/09 09:08:19;;;;;;;;;;;;;;;8.49;97.85;98819.63;5011955;28;817;-61
2022/01/09 09:10:46;;;;;;;;;;;;;;;8.50;97.52;98817.66;4994250;28;1218;-61
2022/01/09 09:13:13;;;;;;;;;;;;;;;8.41;97.21;98815.41;5012063;28;940;-61
2022/01/09 09:15:40;;;;;;;;;;;;;;;8.43;97.68;98809.47;4994188;28;1311;-61
2022/01/09 09:18:06;;;;;;;;;;;;;;;8.43;97.30;98804.75;5011726;28;1944;-60
2022/01/09 09:20:33;;;;;;;;;;;;;;;8.35;96.87;98806.78;5011694;28;841;-60
2022/01/09 09:23:00;;;;;;;;;;;;;;;8.30;97.02;98806.44;5011555;28;1345;-60
2022/01/09 09:25:26;;;;;;;;;;;;;;;8.25;97.43;98807.69;5011774;28;860;-60
2022/01/09 09:27:53;;;;;;;;;;;;;;;8.30;97.17;98812.75;5011859;28;816;-60
2022/01/09 09:30:20;;;;;;;;;;;;;;;8.20;97.28;98810.88;5011848;28;836;-60
2022/01/09 09:32:47;;;;;;;;;;;;;;;8.20;97.19;98810.88;5011816;28;835;-60
2022/01/09 09:35:13;;;;;;;;;;;;;;;8.26;97.45;98805.72;5011900;28;875;-60
2022/01/09 09:37:40;;;;;;;;;;;;;;;8.41;97.93;98800.84;5011820;28;1910;-60
2022/01/09 09:40:08;;;;;;;;;;;;;;;8.50;97.33;98803.88;5011954;28;844;-60
2022/01/09 09:42:35;;;;;;;;;;;;;;;8.51;97.10;98797.97;5011721;28;883;-60
2022/01/09 09:45:04;;;;;;;;;;;;;;;8.63;97.34;98799.38;5011891;28;892;-60
2022/01/09 09:47:32;;;;;;;;;;;;;;;8.76;96.93;98789.34;5011548;28;883;-60
2022/01/09 09:49:59;;;;;;;;;;;;;;;8.84;96.56;98783.75;4993999;28;887;-60
2022/01/09 09:52:26;;;;;;;;;;;;;;;8.86;96.06;98790.41;5011403;28;908;-60
2022/01/09 09:54:53;;;;;;;;;;;;;;;8.85;96.04;98785.31;5011454;28;840;-60
2022/01/09 09:57:21;;;;;;;;;;;;;;;8.91;95.84;98786.41;5011268;28;1949;-60
2022/01/09 09:59:48;;;;;;;;;;;;;;;8.93;95.90;98779.28;5011682;28;837;-60
2022/01/09 10:02:18;;;;;;;;;;;;;;;8.99;96.31;98772.09;5014014;28;856;-60
2022/01/09 10:05:02;;;;;;;;;;;;;;;9.29;96.16;98775.19;5015203;28;848;-60
2022/01/09 10:07:29;;;;;;;;;;;;;;;9.61;95.24;98758.88;5015068;28;923;-60
2022/01/09 10:10:00;;;;;;;;;;;;;;;9.68;94.39;98754.44;5015147;28;887;-60
2022/01/09 10:12:31;;;;;;;;;;;;;;;9.58;94.37;98754.22;5015026;28;1015;-59
2022/01/09 10:15:00;;;;;;;;;;;;;;;9.53;94.62;98748.41;5014808;28;864;-60
2022/01/09 10:17:28;;;;;;;;;;;;;;;9.45;94.24;98749.72;5014738;28;1890;-60
2022/01/09 10:19:54;;;;;;;;;;;;;;;9.39;94.53;98743.91;5014853;28;801;-59
2022/01/09 10:22:33;;;;;;;;;;;;;;;9.46;94.00;98741.03;5014669;28;796;-59
2022/01/09 10:25:18;;;;;;;;;;;;;;;9.40;93.63;98748.22;5014643;28;1369;-59
2022/01/09 10:27:45;;;;;;;;;;;;;;;9.30;93.31;98749.97;5014678;28;895;-59
2022/01/09 10:30:12;;;;;;;;;;;;;;;9.35;93.65;98746.72;4997070;28;1422;-59
2022/01/09 10:32:40;;;;;;;;;;;;;;;9.47;93.20;98731.53;4997073;28;1331;-59
2022/01/09 10:35:12;;;;;;;;;;;;;;;9.46;92.29;98734.75;4996977;28;1273;-59
2022/01/09 10:37:40;;;;;;;;;;;;;;;9.33;92.69;98731.81;5014524;28;1977;-59
2022/01/09 10:40:08;;;;;;;;;;;;;;;9.22;92.22;98728.44;5014559;28;860;-59
2022/01/09 10:42:36;;;;;;;;;;;;;;;9.18;92.04;98728.50;5014437;28;874;-59
2022/01/09 10:45:22;;;;;;;;;;;;;;;9.25;92.75;98724.84;5014403;28;907;-59
2022/01/09 10:47:51;;;;;;;;;;;;;;;9.31;92.65;98718.44;5014348;28;800;-59
2022/01/09 10:50:24;;;;;;;;;;;;;;;9.47;92.50;98706.72;4997125;28;1171;-59
2022/01/09 10:52:52;;;;;;;;;;;;;;;9.56;92.09;98708.94;5014253;28;887;-59
2022/01/09 10:55:18;;;;;;;;;;;;;;;9.57;92.12;98708.50;5014092;28;875;-59
2022/01/09 10:57:45;;;;;;;;;;;;;;;9.57;91.66;98713.25;5013986;28;1940;-59
2022/01/09 11:00:14;;;;;;;;;;;;;;;9.49;91.50;98707.06;5014146;28;915;-59
2022/01/09 11:02:44;;;;;;;;;;;;;;;9.42;91.80;98706.44;5013973;28;982;-58
2022/01/09 11:05:11;;;;;;;;;;;;;;;9.38;92.12;98707.25;5014400;28;1339;-59
2022/01/09 11:07:40;;;;;;;;;;;;;;;9.41;92.19;98702.91;4996428;28;1426;-58
2022/01/09 11:10:08;;;;;;;;;;;;;;;9.55;91.96;98705.41;5013976;28;907;-58
2022/01/09 11:12:46;;;;;;;;;;;;;;;9.65;91.58;98698.13;4995722;28;1576;-58
2022/01/09 11:15:16;;;;;;;;;;;;;;;9.74;90.92;98694.81;4996189;28;1458;-58
2022/01/09 11:17:45;;;;;;;;;;;;;;;9.76;90.29;98687.66;4996156;28;1882;-58
2022/01/09 11:20:12;;;;;;;;;;;;;;;9.90;90.16;98692.13;5013764;28;828;-58
2022/01/09 11:22:39;;;;;;;;;;;;;;;10.00;90.50;98680.06;5014086;28;812;-58
2022/01/09 11:25:27;;;;;;;;;;;;;;;10.07;90.09;98687.47;5013543;28;1508;-58
2022/01/09 11:28:13;;;;;;;;;;;;;;;10.22;90.41;98683.19;4996419;28;1287;-58
2022/01/09 11:30:59;;;;;;;;;;;;;;;10.38;89.66;98682.47;5013534;28;887;-58
2022/01/09 11:33:44;;;;;;;;;;;;;;;10.45;89.62;98678.75;5013449;28;844;-58
2022/01/09 11:36:11;;;;;;;;;;;;;;;10.59;89.53;98672.91;5013420;28;1970;-57
2022/01/09 11:38:50;;;;;;;;;;;;;;;10.80;89.36;98671.66;5013405;28;883;-57
2022/01/09 11:41:20;;;;;;;;;;;;;;;10.95;88.48;98669.31;5013421;28;927;-57
2022/01/09 11:43:55;;;;;;;;;;;;;;;11.09;87.60;98661.88;5013253;28;841;-57
2022/01/09 11:46:23;;;;;;;;;;;;;;;11.04;86.70;98655.66;4995708;28;931;-57
2022/01/09 11:48:54;;;;;;;;;;;;;;;11.19;87.09;98652.53;4995937;28;813;-57
2022/01/09 11:51:25;;;;;;;;;;;;;;;11.37;86.54;98647.31;4995629;28;1338;-57
2022/01/09 11:53:56;;;;;;;;;;;;;;;11.24;86.66;98649.22;4995588;28;1359;-57
2022/01/09 11:56:40;;;;;;;;;;;;;;;11.13;86.50;98640.44;5012700;28;1943;-57
2022/01/09 11:59:27;;;;;;;;;;;;;;;10.90;86.09;98636.66;4995324;28;1264;-57
2022/01/09 12:01:58;;;;;;;;;;;;;;;10.69;86.13;98632.44;5012875;28;932;-57
2022/01/09 12:04:34;;;;;;;;;;;;;;;10.69;86.24;98628.88;5012982;28;844;-57
2022/01/09 12:07:09;;;;;;;;;;;;;;;10.61;86.72;98629.06;4995227;28;1455;-57
2022/01/09 12:09:36;;;;;;;;;;;;;;;10.49;86.09;98626.19;5012919;28;860;-57
2022/01/09 12:12:03;;;;;;;;;;;;;;;10.44;86.58;98623.97;5012735;28;1039;-58
2022/01/09 12:14:51;;;;;;;;;;;;;;;10.40;86.32;98629.56;4995128;28;1172;-57
2022/01/09 12:17:18;;;;;;;;;;;;;;;10.17;86.78;98631.22;4994916;28;1944;-57
2022/01/09 12:20:10;;;;;;;;;;;;;;;10.09;87.36;98627.06;5012678;28;860;-57
2022/01/09 12:22:45;;;;;;;;;;;;;;;10.13;87.49;98633.25;5012571;28;856;-57
2022/01/09 12:25:24;;;;;;;;;;;;;;;10.09;87.40;98634.56;5011371;28;983;-57
2022/01/09 12:27:56;;;;;;;;;;;;;;;10.01;87.98;98631.19;5012346;28;872;-59
2022/01/09 12:30:44;;;;;;;;;;;;;;;10.01;88.36;98622.91;4994864;28;1237;-57
2022/01/09 12:33:20;;;;;;;;;;;;;;;9.90;88.12;98612.09;4994678;28;1275;-57
2022/01/09 12:35:56;;;;;;;;;;;;;;;9.81;88.38;98618.19;4994888;28;1309;-56
2022/01/09 12:38:24;;;;;;;;;;;;;;;9.65;88.45;98620.88;5012361;28;809;-58
2022/01/09 12:41:09;;;;;;;;;;;;;;;9.58;88.82;98608.00;5012394;28;933;-58
2022/01/09 12:43:36;;;;;;;;;;;;;;;9.59;88.93;98612.31;4994644;28;1249;-57
2022/01/09 12:46:17;;;;;;;;;;;;;;;9.56;89.18;98599.38;5012249;28;832;-58
2022/01/09 12:48:54;;;;;;;;;;;;;;;9.53;89.11;98600.22;5012189;28;876;-58
2022/01/09 12:51:21;;;;;;;;;;;;;;;9.49;88.71;98590.47;4994628;28;971;-58
2022/01/09 12:53:49;;;;;;;;;;;;;;;9.48;88.31;98584.19;5012054;28;909;-58
2022/01/09 12:56:19;;;;;;;;;;;;;;;9.50;88.06;98584.53;5012000;28;1882;-58
2022/01/09 12:58:52;;;;;;;;;;;;;;;9.54;87.70;98592.75;5011889;28;924;-58
2022/01/09 13:01:33;;;;;;;;;;;;;;;9.54;87.52;98601.00;5011875;28;951;-58
2022/01/09 13:04:01;;;;;;;;;;;;;;;9.65;87.49;98598.03;5012020;28;1000;-58
2022/01/09 13:06:29;;;;;;;;;;;;;;;9.71;86.35;98585.31;4994312;28;1181;-58
2022/01/09 13:09:00;;;;;;;;;;;;;;;9.72;86.13;98597.88;5011912;28;852;-58
2022/01/09 13:11:27;;;;;;;;;;;;;;;9.68;85.41;98608.97;5011902;28;872;-58
2022/01/09 13:13:55;;;;;;;;;;;;;;;9.70;85.88;98614.84;4994388;28;923;-58